sensor_id;sensor_type;location;lat;lon;timestamp;P1;durP1;ratioP1;P2;durP2;ratioP2
67696;SDS011;54486;51.442;6.778;2023-08-21T00:01:19;7.20;;;1.67;;
67696;SDS011;54486;51.442;6.778;2023-08-21T00:03:48;6.93;;;1.80;;
67696;SDS011;54486;51.442;6.778;2023-08-21T00:06:15;7.50;;;2.07;;
67696;SDS011;54486;51.442;6.778;2023-08-21T00:08:42;6.73;;;1.80;;
67696;SDS011;54486;51.442;6.778;2023-08-21T00:11:09;7.60;;;1.80;;
67696;SDS011;54486;51.442;6.778;2023-08-21T00:13:37;7.20;;;1.80;;
67696;SDS011;54486;51.442;6.778;2023-08-21T00:16:04;7.28;;;1.67;;
67696;SDS011;54486;51.442;6.778;2023-08-21T00:18:31;7.53;;;1.67;;
67696;SDS011;54486;51.442;6.778;2023-08-21T00:20:57;6.10;;;1.50;;
67696;SDS011;54486;51.442;6.778;2023-08-21T00:23:24;8.30;;;1.60;;
67696;SDS011;54486;51.442;6.778;2023-08-21T00:25:51;7.32;;;1.60;;
67696;SDS011;54486;51.442;6.778;2023-08-21T00:28:18;7.93;;;1.83;;
67696;SDS011;54486;51.442;6.778;2023-08-21T00:30:45;7.00;;;1.90;;
67696;SDS011;54486;51.442;6.778;2023-08-21T00:33:12;8.27;;;1.70;;
67696;SDS011;54486;51.442;6.778;2023-08-21T00:35:38;5.78;;;1.60;;
67696;SDS011;54486;51.442;6.778;2023-08-21T00:38:05;5.83;;;1.63;;
67696;SDS011;54486;51.442;6.778;2023-08-21T00:40:33;5.77;;;1.73;;
67696;SDS011;54486;51.442;6.778;2023-08-21T00:43:00;7.03;;;1.83;;
67696;SDS011;54486;51.442;6.778;2023-08-21T00:45:27;7.70;;;1.50;;
67696;SDS011;54486;51.442;6.778;2023-08-21T00:47:54;6.53;;;1.60;;
67696;SDS011;54486;51.442;6.778;2023-08-21T00:50:22;6.18;;;1.75;;
67696;SDS011;54486;51.442;6.778;2023-08-21T00:52:49;7.32;;;1.80;;
67696;SDS011;54486;51.442;6.778;2023-08-21T00:55:16;6.43;;;1.60;;
67696;SDS011;54486;51.442;6.778;2023-08-21T00:57:43;6.50;;;1.70;;
67696;SDS011;54486;51.442;6.778;2023-08-21T01:00:12;7.05;;;1.73;;
67696;SDS011;54486;51.442;6.778;2023-08-21T01:02:44;7.60;;;1.97;;
67696;SDS011;54486;51.442;6.778;2023-08-21T01:05:12;7.65;;;1.50;;
67696;SDS011;54486;51.442;6.778;2023-08-21T01:07:48;6.57;;;1.85;;
67696;SDS011;54486;51.442;6.778;2023-08-21T01:10:24;7.28;;;1.95;;
67696;SDS011;54486;51.442;6.778;2023-08-21T01:13:05;7.57;;;1.70;;
67696;SDS011;54486;51.442;6.778;2023-08-21T01:15:38;7.07;;;1.67;;
67696;SDS011;54486;51.442;6.778;2023-08-21T01:18:06;7.43;;;1.75;;
67696;SDS011;54486;51.442;6.778;2023-08-21T01:20:35;6.93;;;1.90;;
67696;SDS011;54486;51.442;6.778;2023-08-21T01:23:03;7.97;;;1.80;;
67696;SDS011;54486;51.442;6.778;2023-08-21T01:25:32;8.70;;;1.70;;
67696;SDS011;54486;51.442;6.778;2023-08-21T01:28:00;6.60;;;1.83;;
67696;SDS011;54486;51.442;6.778;2023-08-21T01:30:27;8.63;;;1.70;;
67696;SDS011;54486;51.442;6.778;2023-08-21T01:35:37;7.65;;;1.70;;
67696;SDS011;54486;51.442;6.778;2023-08-21T01:38:05;7.18;;;1.70;;
67696;SDS011;54486;51.442;6.778;2023-08-21T01:40:33;7.72;;;1.70;;
67696;SDS011;54486;51.442;6.778;2023-08-21T01:43:00;8.45;;;1.90;;
67696;SDS011;54486;51.442;6.778;2023-08-21T01:45:27;7.80;;;2.05;;
67696;SDS011;54486;51.442;6.778;2023-08-21T01:47:54;8.50;;;1.85;;
67696;SDS011;54486;51.442;6.778;2023-08-21T01:50:21;6.95;;;1.77;;
67696;SDS011;54486;51.442;6.778;2023-08-21T01:52:48;6.95;;;1.75;;
67696;SDS011;54486;51.442;6.778;2023-08-21T01:55:15;6.05;;;1.63;;
67696;SDS011;54486;51.442;6.778;2023-08-21T01:57:43;8.63;;;1.92;;
67696;SDS011;54486;51.442;6.778;2023-08-21T02:00:10;7.00;;;1.80;;
67696;SDS011;54486;51.442;6.778;2023-08-21T02:02:39;6.13;;;1.93;;
67696;SDS011;54486;51.442;6.778;2023-08-21T02:05:07;7.37;;;2.00;;
67696;SDS011;54486;51.442;6.778;2023-08-21T02:07:34;8.45;;;1.77;;
67696;SDS011;54486;51.442;6.778;2023-08-21T02:10:01;8.70;;;2.05;;
67696;SDS011;54486;51.442;6.778;2023-08-21T02:12:28;6.20;;;1.80;;
67696;SDS011;54486;51.442;6.778;2023-08-21T02:14:56;7.97;;;2.25;;
67696;SDS011;54486;51.442;6.778;2023-08-21T02:17:25;7.80;;;2.08;;
67696;SDS011;54486;51.442;6.778;2023-08-21T02:19:53;7.38;;;2.03;;
67696;SDS011;54486;51.442;6.778;2023-08-21T02:22:20;8.35;;;1.98;;
67696;SDS011;54486;51.442;6.778;2023-08-21T02:24:47;6.78;;;1.67;;
67696;SDS011;54486;51.442;6.778;2023-08-21T02:27:13;7.45;;;2.22;;
67696;SDS011;54486;51.442;6.778;2023-08-21T02:29:41;7.82;;;1.90;;
67696;SDS011;54486;51.442;6.778;2023-08-21T02:32:08;8.82;;;1.80;;
67696;SDS011;54486;51.442;6.778;2023-08-21T02:34:34;7.67;;;1.87;;
67696;SDS011;54486;51.442;6.778;2023-08-21T02:37:02;6.07;;;1.92;;
67696;SDS011;54486;51.442;6.778;2023-08-21T02:39:29;7.63;;;2.00;;
67696;SDS011;54486;51.442;6.778;2023-08-21T02:41:57;7.05;;;1.90;;
67696;SDS011;54486;51.442;6.778;2023-08-21T02:44:24;9.53;;;1.90;;
67696;SDS011;54486;51.442;6.778;2023-08-21T02:46:51;6.50;;;1.90;;
67696;SDS011;54486;51.442;6.778;2023-08-21T02:49:18;7.60;;;1.90;;
67696;SDS011;54486;51.442;6.778;2023-08-21T02:51:45;8.38;;;2.00;;
67696;SDS011;54486;51.442;6.778;2023-08-21T02:54:12;8.00;;;2.10;;
67696;SDS011;54486;51.442;6.778;2023-08-21T02:56:39;5.85;;;1.85;;
67696;SDS011;54486;51.442;6.778;2023-08-21T02:59:06;7.78;;;1.73;;
67696;SDS011;54486;51.442;6.778;2023-08-21T03:01:33;7.85;;;2.15;;
67696;SDS011;54486;51.442;6.778;2023-08-21T03:04:02;8.15;;;2.03;;
67696;SDS011;54486;51.442;6.778;2023-08-21T03:06:29;6.45;;;1.80;;
67696;SDS011;54486;51.442;6.778;2023-08-21T03:08:56;8.88;;;1.80;;
67696;SDS011;54486;51.442;6.778;2023-08-21T03:11:23;8.18;;;2.28;;
67696;SDS011;54486;51.442;6.778;2023-08-21T03:13:50;7.05;;;2.33;;
67696;SDS011;54486;51.442;6.778;2023-08-21T03:16:17;7.32;;;2.10;;
67696;SDS011;54486;51.442;6.778;2023-08-21T03:18:53;6.65;;;1.95;;
67696;SDS011;54486;51.442;6.778;2023-08-21T03:21:25;6.75;;;1.80;;
67696;SDS011;54486;51.442;6.778;2023-08-21T03:23:54;7.53;;;2.03;;
67696;SDS011;54486;51.442;6.778;2023-08-21T03:26:23;8.10;;;2.30;;
67696;SDS011;54486;51.442;6.778;2023-08-21T03:28:51;7.53;;;1.80;;
67696;SDS011;54486;51.442;6.778;2023-08-21T03:31:17;7.00;;;1.98;;
67696;SDS011;54486;51.442;6.778;2023-08-21T03:33:44;8.75;;;1.90;;
67696;SDS011;54486;51.442;6.778;2023-08-21T03:36:13;8.88;;;2.30;;
67696;SDS011;54486;51.442;6.778;2023-08-21T03:38:40;7.70;;;2.00;;
67696;SDS011;54486;51.442;6.778;2023-08-21T03:41:07;7.78;;;2.00;;
67696;SDS011;54486;51.442;6.778;2023-08-21T03:43:34;7.43;;;1.98;;
67696;SDS011;54486;51.442;6.778;2023-08-21T03:46:01;7.20;;;2.10;;
67696;SDS011;54486;51.442;6.778;2023-08-21T03:48:28;7.55;;;2.13;;
67696;SDS011;54486;51.442;6.778;2023-08-21T03:50:55;9.35;;;2.85;;
67696;SDS011;54486;51.442;6.778;2023-08-21T03:53:22;10.57;;;2.40;;
67696;SDS011;54486;51.442;6.778;2023-08-21T03:55:49;7.77;;;2.10;;
67696;SDS011;54486;51.442;6.778;2023-08-21T03:58:16;8.38;;;2.30;;
67696;SDS011;54486;51.442;6.778;2023-08-21T04:00:43;8.18;;;2.45;;
67696;SDS011;54486;51.442;6.778;2023-08-21T04:03:10;7.07;;;2.20;;
67696;SDS011;54486;51.442;6.778;2023-08-21T04:05:37;9.10;;;2.43;;
67696;SDS011;54486;51.442;6.778;2023-08-21T04:08:05;7.20;;;2.20;;
67696;SDS011;54486;51.442;6.778;2023-08-21T04:10:32;8.60;;;2.13;;
67696;SDS011;54486;51.442;6.778;2023-08-21T04:13:00;7.95;;;2.08;;
67696;SDS011;54486;51.442;6.778;2023-08-21T04:15:30;8.07;;;2.10;;
67696;SDS011;54486;51.442;6.778;2023-08-21T04:17:57;7.63;;;2.13;;
67696;SDS011;54486;51.442;6.778;2023-08-21T04:20:24;7.32;;;2.42;;
67696;SDS011;54486;51.442;6.778;2023-08-21T04:22:51;7.20;;;2.17;;
67696;SDS011;54486;51.442;6.778;2023-08-21T04:25:19;8.27;;;2.38;;
67696;SDS011;54486;51.442;6.778;2023-08-21T04:27:45;9.02;;;2.28;;
67696;SDS011;54486;51.442;6.778;2023-08-21T04:30:13;7.88;;;2.40;;
67696;SDS011;54486;51.442;6.778;2023-08-21T04:32:40;8.30;;;2.30;;
67696;SDS011;54486;51.442;6.778;2023-08-21T04:35:08;8.73;;;2.20;;
67696;SDS011;54486;51.442;6.778;2023-08-21T04:37:37;8.50;;;2.42;;
67696;SDS011;54486;51.442;6.778;2023-08-21T04:40:09;7.20;;;2.33;;
67696;SDS011;54486;51.442;6.778;2023-08-21T04:42:37;9.40;;;2.40;;
67696;SDS011;54486;51.442;6.778;2023-08-21T04:45:04;8.00;;;2.38;;
67696;SDS011;54486;51.442;6.778;2023-08-21T04:47:32;9.10;;;2.33;;
67696;SDS011;54486;51.442;6.778;2023-08-21T04:49:59;9.93;;;2.45;;
67696;SDS011;54486;51.442;6.778;2023-08-21T04:52:26;7.90;;;2.28;;
67696;SDS011;54486;51.442;6.778;2023-08-21T04:54:54;7.47;;;2.50;;
67696;SDS011;54486;51.442;6.778;2023-08-21T04:57:21;8.75;;;2.30;;
67696;SDS011;54486;51.442;6.778;2023-08-21T04:59:48;7.75;;;2.67;;
67696;SDS011;54486;51.442;6.778;2023-08-21T05:02:15;10.50;;;2.72;;
67696;SDS011;54486;51.442;6.778;2023-08-21T05:04:42;10.43;;;2.70;;
67696;SDS011;54486;51.442;6.778;2023-08-21T05:07:09;9.13;;;2.60;;
67696;SDS011;54486;51.442;6.778;2023-08-21T05:09:37;9.65;;;2.30;;
67696;SDS011;54486;51.442;6.778;2023-08-21T05:12:05;7.22;;;2.38;;
67696;SDS011;54486;51.442;6.778;2023-08-21T05:14:32;7.78;;;2.33;;
67696;SDS011;54486;51.442;6.778;2023-08-21T05:16:59;7.40;;;2.22;;
67696;SDS011;54486;51.442;6.778;2023-08-21T05:19:26;8.88;;;2.40;;
67696;SDS011;54486;51.442;6.778;2023-08-21T05:21:54;7.57;;;2.40;;
67696;SDS011;54486;51.442;6.778;2023-08-21T05:24:21;9.68;;;2.85;;
67696;SDS011;54486;51.442;6.778;2023-08-21T05:26:48;7.70;;;2.23;;
67696;SDS011;54486;51.442;6.778;2023-08-21T05:29:15;8.98;;;2.60;;
67696;SDS011;54486;51.442;6.778;2023-08-21T05:31:42;9.27;;;2.50;;
67696;SDS011;54486;51.442;6.778;2023-08-21T05:34:09;9.43;;;2.45;;
67696;SDS011;54486;51.442;6.778;2023-08-21T05:36:39;9.07;;;2.40;;
67696;SDS011;54486;51.442;6.778;2023-08-21T05:39:07;8.30;;;2.10;;
67696;SDS011;54486;51.442;6.778;2023-08-21T05:41:35;8.20;;;2.53;;
67696;SDS011;54486;51.442;6.778;2023-08-21T05:44:02;9.33;;;2.37;;
67696;SDS011;54486;51.442;6.778;2023-08-21T05:46:29;7.38;;;2.03;;
67696;SDS011;54486;51.442;6.778;2023-08-21T05:48:56;8.38;;;2.03;;
67696;SDS011;54486;51.442;6.778;2023-08-21T05:51:22;8.55;;;2.25;;
67696;SDS011;54486;51.442;6.778;2023-08-21T05:53:49;8.48;;;2.10;;
67696;SDS011;54486;51.442;6.778;2023-08-21T05:56:16;8.70;;;1.88;;
67696;SDS011;54486;51.442;6.778;2023-08-21T05:58:44;10.32;;;2.45;;
67696;SDS011;54486;51.442;6.778;2023-08-21T06:01:11;9.13;;;2.20;;
67696;SDS011;54486;51.442;6.778;2023-08-21T06:03:38;7.90;;;2.20;;
67696;SDS011;54486;51.442;6.778;2023-08-21T06:06:05;9.88;;;2.38;;
67696;SDS011;54486;51.442;6.778;2023-08-21T06:08:32;8.63;;;2.25;;
67696;SDS011;54486;51.442;6.778;2023-08-21T06:11:00;8.73;;;2.15;;
67696;SDS011;54486;51.442;6.778;2023-08-21T06:13:27;8.23;;;2.17;;
67696;SDS011;54486;51.442;6.778;2023-08-21T06:15:54;9.57;;;2.28;;
67696;SDS011;54486;51.442;6.778;2023-08-21T06:18:21;9.40;;;2.20;;
67696;SDS011;54486;51.442;6.778;2023-08-21T06:20:48;9.57;;;1.98;;
67696;SDS011;54486;51.442;6.778;2023-08-21T06:23:20;7.93;;;2.40;;
67696;SDS011;54486;51.442;6.778;2023-08-21T06:25:50;10.10;;;2.20;;
67696;SDS011;54486;51.442;6.778;2023-08-21T06:28:17;7.78;;;2.10;;
67696;SDS011;54486;51.442;6.778;2023-08-21T06:30:44;8.48;;;2.35;;
67696;SDS011;54486;51.442;6.778;2023-08-21T06:33:11;7.53;;;2.20;;
67696;SDS011;54486;51.442;6.778;2023-08-21T06:35:38;8.07;;;2.42;;
67696;SDS011;54486;51.442;6.778;2023-08-21T06:38:05;7.80;;;2.20;;
67696;SDS011;54486;51.442;6.778;2023-08-21T06:40:32;7.82;;;2.20;;
67696;SDS011;54486;51.442;6.778;2023-08-21T06:43:00;7.00;;;2.30;;
67696;SDS011;54486;51.442;6.778;2023-08-21T06:45:27;8.20;;;2.13;;
67696;SDS011;54486;51.442;6.778;2023-08-21T06:47:57;10.13;;;2.50;;
67696;SDS011;54486;51.442;6.778;2023-08-21T06:50:24;9.50;;;2.50;;
67696;SDS011;54486;51.442;6.778;2023-08-21T06:52:51;8.40;;;2.40;;
67696;SDS011;54486;51.442;6.778;2023-08-21T06:55:18;8.55;;;2.53;;
67696;SDS011;54486;51.442;6.778;2023-08-21T06:57:44;8.82;;;2.67;;
67696;SDS011;54486;51.442;6.778;2023-08-21T07:00:12;10.02;;;2.90;;
67696;SDS011;54486;51.442;6.778;2023-08-21T07:02:39;9.75;;;2.80;;
67696;SDS011;54486;51.442;6.778;2023-08-21T07:05:07;9.07;;;2.33;;
67696;SDS011;54486;51.442;6.778;2023-08-21T07:07:38;9.73;;;2.72;;
67696;SDS011;54486;51.442;6.778;2023-08-21T07:10:05;9.43;;;2.60;;
67696;SDS011;54486;51.442;6.778;2023-08-21T07:12:33;9.80;;;2.75;;
67696;SDS011;54486;51.442;6.778;2023-08-21T07:15:02;9.75;;;2.70;;
67696;SDS011;54486;51.442;6.778;2023-08-21T07:17:29;8.90;;;2.20;;
67696;SDS011;54486;51.442;6.778;2023-08-21T07:19:56;9.90;;;2.50;;
67696;SDS011;54486;51.442;6.778;2023-08-21T07:22:23;9.00;;;2.60;;
67696;SDS011;54486;51.442;6.778;2023-08-21T07:24:51;11.57;;;2.55;;
67696;SDS011;54486;51.442;6.778;2023-08-21T07:27:18;8.85;;;2.20;;
67696;SDS011;54486;51.442;6.778;2023-08-21T07:29:45;8.65;;;2.28;;
67696;SDS011;54486;51.442;6.778;2023-08-21T07:32:12;9.13;;;2.30;;
67696;SDS011;54486;51.442;6.778;2023-08-21T07:34:39;9.10;;;2.25;;
67696;SDS011;54486;51.442;6.778;2023-08-21T07:37:07;8.52;;;2.38;;
67696;SDS011;54486;51.442;6.778;2023-08-21T07:39:34;9.93;;;2.30;;
67696;SDS011;54486;51.442;6.778;2023-08-21T07:42:02;9.52;;;2.22;;
67696;SDS011;54486;51.442;6.778;2023-08-21T07:44:29;8.57;;;2.30;;
67696;SDS011;54486;51.442;6.778;2023-08-21T07:46:56;9.50;;;2.17;;
67696;SDS011;54486;51.442;6.778;2023-08-21T07:49:23;10.10;;;2.65;;
67696;SDS011;54486;51.442;6.778;2023-08-21T07:51:50;8.32;;;2.45;;
67696;SDS011;54486;51.442;6.778;2023-08-21T07:54:17;10.85;;;2.13;;
67696;SDS011;54486;51.442;6.778;2023-08-21T07:56:44;10.32;;;2.80;;
67696;SDS011;54486;51.442;6.778;2023-08-21T07:59:12;8.48;;;2.10;;
67696;SDS011;54486;51.442;6.778;2023-08-21T08:01:39;7.57;;;2.10;;
67696;SDS011;54486;51.442;6.778;2023-08-21T08:04:07;8.18;;;2.25;;
67696;SDS011;54486;51.442;6.778;2023-08-21T08:06:34;10.10;;;2.50;;
67696;SDS011;54486;51.442;6.778;2023-08-21T08:09:02;8.25;;;2.40;;
67696;SDS011;54486;51.442;6.778;2023-08-21T08:11:30;12.10;;;2.55;;
67696;SDS011;54486;51.442;6.778;2023-08-21T08:13:57;9.23;;;2.20;;
67696;SDS011;54486;51.442;6.778;2023-08-21T08:16:24;8.23;;;1.83;;
67696;SDS011;54486;51.442;6.778;2023-08-21T08:18:52;8.57;;;2.13;;
67696;SDS011;54486;51.442;6.778;2023-08-21T08:21:19;8.35;;;2.25;;
67696;SDS011;54486;51.442;6.778;2023-08-21T08:23:46;9.40;;;2.28;;
67696;SDS011;54486;51.442;6.778;2023-08-21T08:26:13;8.65;;;1.90;;
67696;SDS011;54486;51.442;6.778;2023-08-21T08:28:40;7.85;;;2.00;;
67696;SDS011;54486;51.442;6.778;2023-08-21T08:31:13;8.48;;;2.10;;
67696;SDS011;54486;51.442;6.778;2023-08-21T08:33:41;8.05;;;1.90;;
67696;SDS011;54486;51.442;6.778;2023-08-21T08:36:08;8.25;;;2.20;;
67696;SDS011;54486;51.442;6.778;2023-08-21T08:38:37;7.13;;;1.77;;
67696;SDS011;54486;51.442;6.778;2023-08-21T08:41:06;8.75;;;2.00;;
67696;SDS011;54486;51.442;6.778;2023-08-21T08:43:39;6.18;;;1.65;;
67696;SDS011;54486;51.442;6.778;2023-08-21T08:46:07;8.57;;;1.80;;
67696;SDS011;54486;51.442;6.778;2023-08-21T08:48:36;7.60;;;1.83;;
67696;SDS011;54486;51.442;6.778;2023-08-21T08:51:04;6.65;;;1.60;;
67696;SDS011;54486;51.442;6.778;2023-08-21T08:53:31;7.77;;;1.80;;
67696;SDS011;54486;51.442;6.778;2023-08-21T08:55:59;8.73;;;1.70;;
67696;SDS011;54486;51.442;6.778;2023-08-21T08:58:28;6.95;;;1.73;;
67696;SDS011;54486;51.442;6.778;2023-08-21T09:00:56;8.30;;;2.13;;
67696;SDS011;54486;51.442;6.778;2023-08-21T09:03:23;7.35;;;1.80;;
67696;SDS011;54486;51.442;6.778;2023-08-21T09:05:50;6.20;;;1.70;;
67696;SDS011;54486;51.442;6.778;2023-08-21T09:08:17;8.23;;;1.73;;
67696;SDS011;54486;51.442;6.778;2023-08-21T09:10:45;8.07;;;1.90;;
67696;SDS011;54486;51.442;6.778;2023-08-21T09:13:17;7.75;;;1.92;;
67696;SDS011;54486;51.442;6.778;2023-08-21T09:15:46;8.68;;;2.20;;
67696;SDS011;54486;51.442;6.778;2023-08-21T09:18:15;7.10;;;1.83;;
67696;SDS011;54486;51.442;6.778;2023-08-21T09:20:43;6.95;;;1.83;;
67696;SDS011;54486;51.442;6.778;2023-08-21T09:23:14;7.65;;;1.80;;
67696;SDS011;54486;51.442;6.778;2023-08-21T09:25:44;7.07;;;1.73;;
67696;SDS011;54486;51.442;6.778;2023-08-21T09:28:20;7.47;;;2.10;;
67696;SDS011;54486;51.442;6.778;2023-08-21T09:30:52;7.85;;;1.73;;
67696;SDS011;54486;51.442;6.778;2023-08-21T09:33:20;8.13;;;1.77;;
67696;SDS011;54486;51.442;6.778;2023-08-21T09:35:52;8.65;;;1.70;;
67696;SDS011;54486;51.442;6.778;2023-08-21T09:38:20;8.80;;;1.80;;
67696;SDS011;54486;51.442;6.778;2023-08-21T09:40:51;7.32;;;1.80;;
67696;SDS011;54486;51.442;6.778;2023-08-21T09:43:22;9.52;;;2.10;;
67696;SDS011;54486;51.442;6.778;2023-08-21T09:45:52;8.77;;;1.80;;
67696;SDS011;54486;51.442;6.778;2023-08-21T09:48:22;8.50;;;1.90;;
67696;SDS011;54486;51.442;6.778;2023-08-21T09:50:53;8.05;;;1.90;;
67696;SDS011;54486;51.442;6.778;2023-08-21T09:53:21;7.93;;;1.98;;
67696;SDS011;54486;51.442;6.778;2023-08-21T09:55:55;7.45;;;1.88;;
67696;SDS011;54486;51.442;6.778;2023-08-21T09:58:22;7.30;;;2.00;;
67696;SDS011;54486;51.442;6.778;2023-08-21T10:00:51;8.40;;;2.05;;
67696;SDS011;54486;51.442;6.778;2023-08-21T10:03:22;8.25;;;2.00;;
67696;SDS011;54486;51.442;6.778;2023-08-21T10:05:50;9.20;;;1.95;;
67696;SDS011;54486;51.442;6.778;2023-08-21T10:08:22;8.15;;;1.80;;
67696;SDS011;54486;51.442;6.778;2023-08-21T10:10:53;6.90;;;1.90;;
67696;SDS011;54486;51.442;6.778;2023-08-21T10:13:21;6.57;;;1.90;;
67696;SDS011;54486;51.442;6.778;2023-08-21T10:15:48;7.43;;;1.90;;
67696;SDS011;54486;51.442;6.778;2023-08-21T10:18:22;8.73;;;1.98;;
67696;SDS011;54486;51.442;6.778;2023-08-21T10:20:51;7.55;;;1.98;;
67696;SDS011;54486;51.442;6.778;2023-08-21T10:23:29;7.90;;;2.13;;
67696;SDS011;54486;51.442;6.778;2023-08-21T10:25:58;7.53;;;2.13;;
67696;SDS011;54486;51.442;6.778;2023-08-21T10:31:26;8.48;;;2.00;;
67696;SDS011;54486;51.442;6.778;2023-08-21T10:33:55;7.72;;;1.92;;
67696;SDS011;54486;51.442;6.778;2023-08-21T10:39:27;8.18;;;1.88;;
67696;SDS011;54486;51.442;6.778;2023-08-21T10:42:02;7.95;;;2.00;;
67696;SDS011;54486;51.442;6.778;2023-08-21T10:47:16;7.90;;;2.00;;
67696;SDS011;54486;51.442;6.778;2023-08-21T10:49:47;8.55;;;2.03;;
67696;SDS011;54486;51.442;6.778;2023-08-21T10:52:19;6.73;;;1.80;;
67696;SDS011;54486;51.442;6.778;2023-08-21T10:54:50;8.10;;;1.77;;
67696;SDS011;54486;51.442;6.778;2023-08-21T10:57:18;7.03;;;1.77;;
67696;SDS011;54486;51.442;6.778;2023-08-21T10:59:53;6.40;;;1.67;;
67696;SDS011;54486;51.442;6.778;2023-08-21T11:02:20;9.13;;;2.05;;
67696;SDS011;54486;51.442;6.778;2023-08-21T11:04:49;6.78;;;1.85;;
67696;SDS011;54486;51.442;6.778;2023-08-21T11:07:17;5.85;;;1.60;;
67696;SDS011;54486;51.442;6.778;2023-08-21T11:09:44;7.20;;;1.75;;
67696;SDS011;54486;51.442;6.778;2023-08-21T11:12:12;7.13;;;1.77;;
67696;SDS011;54486;51.442;6.778;2023-08-21T11:14:41;6.82;;;1.90;;
67696;SDS011;54486;51.442;6.778;2023-08-21T11:17:09;7.13;;;2.10;;
67696;SDS011;54486;51.442;6.778;2023-08-21T11:19:37;9.23;;;2.22;;
67696;SDS011;54486;51.442;6.778;2023-08-21T11:22:05;7.05;;;1.90;;
67696;SDS011;54486;51.442;6.778;2023-08-21T11:27:04;8.77;;;2.30;;
67696;SDS011;54486;51.442;6.778;2023-08-21T11:29:41;8.00;;;1.90;;
67696;SDS011;54486;51.442;6.778;2023-08-21T11:32:11;7.28;;;1.60;;
67696;SDS011;54486;51.442;6.778;2023-08-21T11:37:25;8.57;;;1.90;;
67696;SDS011;54486;51.442;6.778;2023-08-21T11:39:56;7.30;;;1.83;;
67696;SDS011;54486;51.442;6.778;2023-08-21T11:42:33;6.85;;;1.70;;
67696;SDS011;54486;51.442;6.778;2023-08-21T11:45:00;7.88;;;1.65;;
67696;SDS011;54486;51.442;6.778;2023-08-21T11:47:33;8.45;;;1.80;;
67696;SDS011;54486;51.442;6.778;2023-08-21T11:50:02;6.50;;;1.67;;
67696;SDS011;54486;51.442;6.778;2023-08-21T11:52:33;8.40;;;1.95;;
67696;SDS011;54486;51.442;6.778;2023-08-21T11:55:02;7.82;;;1.85;;
67696;SDS011;54486;51.442;6.778;2023-08-21T11:57:34;7.45;;;1.80;;
67696;SDS011;54486;51.442;6.778;2023-08-21T12:00:02;7.15;;;1.80;;
67696;SDS011;54486;51.442;6.778;2023-08-21T12:02:32;7.13;;;1.75;;
67696;SDS011;54486;51.442;6.778;2023-08-21T12:05:06;6.82;;;1.58;;
67696;SDS011;54486;51.442;6.778;2023-08-21T12:07:40;7.43;;;2.20;;
67696;SDS011;54486;51.442;6.778;2023-08-21T12:10:07;7.55;;;1.80;;
67696;SDS011;54486;51.442;6.778;2023-08-21T12:12:36;8.73;;;2.00;;
67696;SDS011;54486;51.442;6.778;2023-08-21T12:15:03;6.70;;;1.98;;
67696;SDS011;54486;51.442;6.778;2023-08-21T12:17:30;7.53;;;2.28;;
67696;SDS011;54486;51.442;6.778;2023-08-21T12:19:57;8.10;;;2.22;;
67696;SDS011;54486;51.442;6.778;2023-08-21T12:22:27;6.87;;;2.00;;
67696;SDS011;54486;51.442;6.778;2023-08-21T12:24:54;6.82;;;1.90;;
67696;SDS011;54486;51.442;6.778;2023-08-21T12:27:22;7.28;;;1.80;;
67696;SDS011;54486;51.442;6.778;2023-08-21T12:29:49;7.07;;;2.05;;
67696;SDS011;54486;51.442;6.778;2023-08-21T12:32:16;7.95;;;1.90;;
67696;SDS011;54486;51.442;6.778;2023-08-21T12:34:43;6.82;;;1.85;;
67696;SDS011;54486;51.442;6.778;2023-08-21T12:37:11;7.68;;;1.67;;
67696;SDS011;54486;51.442;6.778;2023-08-21T12:39:37;7.03;;;1.80;;
67696;SDS011;54486;51.442;6.778;2023-08-21T12:42:05;8.00;;;1.95;;
67696;SDS011;54486;51.442;6.778;2023-08-21T12:44:33;7.22;;;1.90;;
67696;SDS011;54486;51.442;6.778;2023-08-21T12:47:00;8.20;;;2.22;;
67696;SDS011;54486;51.442;6.778;2023-08-21T12:49:27;7.35;;;2.08;;
67696;SDS011;54486;51.442;6.778;2023-08-21T12:51:54;8.60;;;2.15;;
67696;SDS011;54486;51.442;6.778;2023-08-21T12:54:22;7.68;;;2.17;;
67696;SDS011;54486;51.442;6.778;2023-08-21T12:56:49;7.23;;;2.47;;
67696;SDS011;54486;51.442;6.778;2023-08-21T12:59:16;7.60;;;2.30;;
67696;SDS011;54486;51.442;6.778;2023-08-21T13:01:46;8.00;;;2.00;;
67696;SDS011;54486;51.442;6.778;2023-08-21T13:04:14;10.07;;;2.10;;
67696;SDS011;54486;51.442;6.778;2023-08-21T13:06:40;7.30;;;1.80;;
67696;SDS011;54486;51.442;6.778;2023-08-21T13:09:07;6.30;;;1.80;;
67696;SDS011;54486;51.442;6.778;2023-08-21T13:11:35;6.50;;;1.80;;
67696;SDS011;54486;51.442;6.778;2023-08-21T13:14:02;8.70;;;2.03;;
67696;SDS011;54486;51.442;6.778;2023-08-21T13:16:29;7.03;;;2.05;;
67696;SDS011;54486;51.442;6.778;2023-08-21T13:18:55;8.30;;;1.90;;
67696;SDS011;54486;51.442;6.778;2023-08-21T13:21:23;7.35;;;2.17;;
67696;SDS011;54486;51.442;6.778;2023-08-21T13:23:50;8.20;;;2.00;;
67696;SDS011;54486;51.442;6.778;2023-08-21T13:26:16;8.52;;;1.92;;
67696;SDS011;54486;51.442;6.778;2023-08-21T13:28:43;9.23;;;2.20;;
67696;SDS011;54486;51.442;6.778;2023-08-21T13:31:11;7.97;;;1.77;;
67696;SDS011;54486;51.442;6.778;2023-08-21T13:33:48;8.48;;;2.28;;
67696;SDS011;54486;51.442;6.778;2023-08-21T13:36:17;6.88;;;1.95;;
67696;SDS011;54486;51.442;6.778;2023-08-21T13:38:45;7.63;;;2.40;;
67696;SDS011;54486;51.442;6.778;2023-08-21T13:41:13;8.13;;;2.33;;
67696;SDS011;54486;51.442;6.778;2023-08-21T13:43:40;8.65;;;2.15;;
67696;SDS011;54486;51.442;6.778;2023-08-21T13:46:07;8.70;;;2.70;;
67696;SDS011;54486;51.442;6.778;2023-08-21T13:48:34;7.88;;;2.40;;
67696;SDS011;54486;51.442;6.778;2023-08-21T13:51:01;7.00;;;2.10;;
67696;SDS011;54486;51.442;6.778;2023-08-21T13:53:28;7.72;;;2.28;;
67696;SDS011;54486;51.442;6.778;2023-08-21T13:55:55;9.25;;;2.42;;
67696;SDS011;54486;51.442;6.778;2023-08-21T13:58:22;9.00;;;2.00;;
67696;SDS011;54486;51.442;6.778;2023-08-21T14:00:49;8.17;;;2.60;;
67696;SDS011;54486;51.442;6.778;2023-08-21T14:03:17;9.18;;;2.38;;
67696;SDS011;54486;51.442;6.778;2023-08-21T14:05:44;7.60;;;2.20;;
67696;SDS011;54486;51.442;6.778;2023-08-21T14:08:11;8.18;;;2.08;;
67696;SDS011;54486;51.442;6.778;2023-08-21T14:10:40;9.07;;;2.05;;
67696;SDS011;54486;51.442;6.778;2023-08-21T14:13:07;7.20;;;2.10;;
67696;SDS011;54486;51.442;6.778;2023-08-21T14:15:34;7.67;;;1.90;;
67696;SDS011;54486;51.442;6.778;2023-08-21T14:18:01;8.20;;;2.08;;
67696;SDS011;54486;51.442;6.778;2023-08-21T14:20:30;9.68;;;1.95;;
67696;SDS011;54486;51.442;6.778;2023-08-21T14:22:57;7.18;;;2.10;;
67696;SDS011;54486;51.442;6.778;2023-08-21T14:25:24;6.93;;;2.08;;
67696;SDS011;54486;51.442;6.778;2023-08-21T14:27:51;8.43;;;1.90;;
67696;SDS011;54486;51.442;6.778;2023-08-21T14:30:18;7.20;;;2.13;;
67696;SDS011;54486;51.442;6.778;2023-08-21T14:32:46;6.93;;;2.08;;
67696;SDS011;54486;51.442;6.778;2023-08-21T14:35:13;8.25;;;2.28;;
67696;SDS011;54486;51.442;6.778;2023-08-21T14:37:40;7.20;;;1.90;;
67696;SDS011;54486;51.442;6.778;2023-08-21T14:40:07;6.53;;;2.00;;
67696;SDS011;54486;51.442;6.778;2023-08-21T14:42:37;7.78;;;1.88;;
67696;SDS011;54486;51.442;6.778;2023-08-21T14:45:06;7.77;;;2.17;;
67696;SDS011;54486;51.442;6.778;2023-08-21T14:47:33;7.10;;;2.13;;
67696;SDS011;54486;51.442;6.778;2023-08-21T14:50:00;8.02;;;2.10;;
67696;SDS011;54486;51.442;6.778;2023-08-21T14:52:27;7.28;;;2.10;;
67696;SDS011;54486;51.442;6.778;2023-08-21T14:54:54;7.07;;;1.98;;
67696;SDS011;54486;51.442;6.778;2023-08-21T14:57:22;6.60;;;2.00;;
67696;SDS011;54486;51.442;6.778;2023-08-21T14:59:49;7.82;;;1.90;;
67696;SDS011;54486;51.442;6.778;2023-08-21T15:02:17;6.97;;;1.98;;
67696;SDS011;54486;51.442;6.778;2023-08-21T15:04:44;8.05;;;2.00;;
67696;SDS011;54486;51.442;6.778;2023-08-21T15:07:11;7.78;;;2.10;;
67696;SDS011;54486;51.442;6.778;2023-08-21T15:09:38;8.47;;;2.20;;